sensor_id;sensor_type;location;lat;lon;timestamp;P1;durP1;ratioP1;P2;durP2;ratioP2
5904;SDS011;2978;42.012;24.880;2023-03-07T00:00:56;37.03;;;23.20;;
5904;SDS011;2978;42.012;24.880;2023-03-07T00:03:21;28.17;;;19.50;;
5904;SDS011;2978;42.012;24.880;2023-03-07T00:05:47;30.03;;;17.67;;
5904;SDS011;2978;42.012;24.880;2023-03-07T00:08:12;27.20;;;18.10;;
5904;SDS011;2978;42.012;24.880;2023-03-07T00:10:38;21.93;;;15.70;;
5904;SDS011;2978;42.012;24.880;2023-03-07T00:13:03;19.93;;;13.47;;
5904;SDS011;2978;42.012;24.880;2023-03-07T00:15:29;17.83;;;11.47;;
5904;SDS011;2978;42.012;24.880;2023-03-07T00:17:55;14.90;;;10.80;;
5904;SDS011;2978;42.012;24.880;2023-03-07T00:20:21;12.33;;;7.73;;
5904;SDS011;2978;42.012;24.880;2023-03-07T00:22:46;16.90;;;11.70;;
5904;SDS011;2978;42.012;24.880;2023-03-07T00:25:12;28.47;;;18.80;;
5904;SDS011;2978;42.012;24.880;2023-03-07T00:27:39;34.40;;;22.93;;
5904;SDS011;2978;42.012;24.880;2023-03-07T00:30:05;31.93;;;21.93;;
5904;SDS011;2978;42.012;24.880;2023-03-07T00:32:31;39.73;;;23.93;;
5904;SDS011;2978;42.012;24.880;2023-03-07T00:34:56;31.57;;;22.70;;
5904;SDS011;2978;42.012;24.880;2023-03-07T00:37:23;38.53;;;22.80;;
5904;SDS011;2978;42.012;24.880;2023-03-07T00:39:49;36.03;;;25.03;;
5904;SDS011;2978;42.012;24.880;2023-03-07T00:42:14;39.03;;;24.20;;
5904;SDS011;2978;42.012;24.880;2023-03-07T00:44:40;34.57;;;22.50;;
5904;SDS011;2978;42.012;24.880;2023-03-07T00:47:06;35.33;;;23.80;;
5904;SDS011;2978;42.012;24.880;2023-03-07T00:49:31;44.40;;;24.37;;
5904;SDS011;2978;42.012;24.880;2023-03-07T00:51:57;38.13;;;24.33;;
5904;SDS011;2978;42.012;24.880;2023-03-07T00:54:22;40.73;;;26.80;;
5904;SDS011;2978;42.012;24.880;2023-03-07T00:56:48;40.93;;;25.63;;
5904;SDS011;2978;42.012;24.880;2023-03-07T00:59:13;40.00;;;24.87;;
5904;SDS011;2978;42.012;24.880;2023-03-07T01:01:39;28.73;;;16.23;;
5904;SDS011;2978;42.012;24.880;2023-03-07T01:04:04;24.73;;;16.50;;
5904;SDS011;2978;42.012;24.880;2023-03-07T01:06:30;25.87;;;17.20;;
5904;SDS011;2978;42.012;24.880;2023-03-07T01:08:58;23.97;;;15.97;;
5904;SDS011;2978;42.012;24.880;2023-03-07T01:11:26;25.47;;;16.27;;
5904;SDS011;2978;42.012;24.880;2023-03-07T01:13:55;21.57;;;13.87;;
5904;SDS011;2978;42.012;24.880;2023-03-07T01:16:23;14.10;;;8.40;;
5904;SDS011;2978;42.012;24.880;2023-03-07T01:18:51;12.90;;;9.33;;
5904;SDS011;2978;42.012;24.880;2023-03-07T01:21:20;10.10;;;8.03;;
5904;SDS011;2978;42.012;24.880;2023-03-07T01:23:47;17.40;;;11.27;;
5904;SDS011;2978;42.012;24.880;2023-03-07T01:26:17;15.00;;;10.90;;
5904;SDS011;2978;42.012;24.880;2023-03-07T01:28:45;21.90;;;14.03;;
5904;SDS011;2978;42.012;24.880;2023-03-07T01:31:11;9.90;;;6.60;;
5904;SDS011;2978;42.012;24.880;2023-03-07T01:33:37;6.77;;;5.40;;
5904;SDS011;2978;42.012;24.880;2023-03-07T01:36:03;5.77;;;4.70;;
5904;SDS011;2978;42.012;24.880;2023-03-07T01:38:29;14.90;;;11.17;;
5904;SDS011;2978;42.012;24.880;2023-03-07T01:40:58;23.97;;;14.37;;
5904;SDS011;2978;42.012;24.880;2023-03-07T01:43:31;26.40;;;13.57;;
5904;SDS011;2978;42.012;24.880;2023-03-07T01:48:59;7.47;;;5.57;;
5904;SDS011;2978;42.012;24.880;2023-03-07T01:51:29;10.50;;;6.70;;
5904;SDS011;2978;42.012;24.880;2023-03-07T01:53:55;7.90;;;5.40;;
5904;SDS011;2978;42.012;24.880;2023-03-07T01:56:22;6.80;;;5.10;;
5904;SDS011;2978;42.012;24.880;2023-03-07T01:58:48;8.33;;;5.30;;
5904;SDS011;2978;42.012;24.880;2023-03-07T02:01:15;7.00;;;5.33;;
5904;SDS011;2978;42.012;24.880;2023-03-07T02:06:48;26.10;;;17.77;;
5904;SDS011;2978;42.012;24.880;2023-03-07T02:09:14;27.63;;;17.50;;
5904;SDS011;2978;42.012;24.880;2023-03-07T02:11:43;21.50;;;17.30;;
5904;SDS011;2978;42.012;24.880;2023-03-07T02:14:10;29.87;;;18.77;;
5904;SDS011;2978;42.012;24.880;2023-03-07T02:16:35;25.73;;;18.53;;
5904;SDS011;2978;42.012;24.880;2023-03-07T02:19:02;25.10;;;17.87;;
5904;SDS011;2978;42.012;24.880;2023-03-07T02:21:55;27.40;;;19.00;;
5904;SDS011;2978;42.012;24.880;2023-03-07T02:24:47;33.83;;;18.97;;
5904;SDS011;2978;42.012;24.880;2023-03-07T02:27:23;43.47;;;19.47;;
5904;SDS011;2978;42.012;24.880;2023-03-07T02:29:50;30.30;;;19.17;;
5904;SDS011;2978;42.012;24.880;2023-03-07T02:32:16;35.90;;;19.90;;
5904;SDS011;2978;42.012;24.880;2023-03-07T02:34:42;31.60;;;19.17;;
5904;SDS011;2978;42.012;24.880;2023-03-07T02:37:30;28.93;;;20.30;;
5904;SDS011;2978;42.012;24.880;2023-03-07T02:39:59;31.60;;;18.57;;
5904;SDS011;2978;42.012;24.880;2023-03-07T02:42:29;29.87;;;18.33;;
5904;SDS011;2978;42.012;24.880;2023-03-07T02:45:02;26.83;;;18.27;;
5904;SDS011;2978;42.012;24.880;2023-03-07T02:47:29;30.13;;;18.90;;
5904;SDS011;2978;42.012;24.880;2023-03-07T02:49:55;28.77;;;19.10;;
5904;SDS011;2978;42.012;24.880;2023-03-07T02:52:20;24.40;;;17.60;;
5904;SDS011;2978;42.012;24.880;2023-03-07T02:54:47;25.27;;;18.93;;
5904;SDS011;2978;42.012;24.880;2023-03-07T02:57:13;30.03;;;19.87;;
5904;SDS011;2978;42.012;24.880;2023-03-07T02:59:39;29.77;;;19.30;;
5904;SDS011;2978;42.012;24.880;2023-03-07T03:02:05;23.30;;;15.43;;
5904;SDS011;2978;42.012;24.880;2023-03-07T03:04:30;25.50;;;17.40;;
5904;SDS011;2978;42.012;24.880;2023-03-07T03:06:56;27.43;;;20.47;;
5904;SDS011;2978;42.012;24.880;2023-03-07T03:09:21;30.07;;;20.50;;
5904;SDS011;2978;42.012;24.880;2023-03-07T03:11:47;27.00;;;17.93;;
5904;SDS011;2978;42.012;24.880;2023-03-07T03:14:12;30.27;;;20.00;;
5904;SDS011;2978;42.012;24.880;2023-03-07T03:16:38;34.30;;;19.50;;
5904;SDS011;2978;42.012;24.880;2023-03-07T03:19:04;29.23;;;20.93;;
5904;SDS011;2978;42.012;24.880;2023-03-07T03:21:30;29.33;;;20.57;;
5904;SDS011;2978;42.012;24.880;2023-03-07T03:23:55;26.20;;;19.37;;
5904;SDS011;2978;42.012;24.880;2023-03-07T03:26:21;32.23;;;20.70;;
5904;SDS011;2978;42.012;24.880;2023-03-07T03:28:46;30.73;;;20.30;;
5904;SDS011;2978;42.012;24.880;2023-03-07T03:31:12;27.47;;;19.20;;
5904;SDS011;2978;42.012;24.880;2023-03-07T03:33:43;32.53;;;20.53;;
5904;SDS011;2978;42.012;24.880;2023-03-07T03:36:13;29.23;;;21.30;;
5904;SDS011;2978;42.012;24.880;2023-03-07T03:38:40;28.50;;;21.40;;
5904;SDS011;2978;42.012;24.880;2023-03-07T03:41:07;32.30;;;21.70;;
5904;SDS011;2978;42.012;24.880;2023-03-07T03:43:34;36.60;;;21.87;;
5904;SDS011;2978;42.012;24.880;2023-03-07T03:46:00;32.93;;;21.43;;
5904;SDS011;2978;42.012;24.880;2023-03-07T03:48:26;33.50;;;22.37;;
5904;SDS011;2978;42.012;24.880;2023-03-07T03:51:05;29.07;;;20.67;;
5904;SDS011;2978;42.012;24.880;2023-03-07T03:53:33;37.83;;;22.57;;
5904;SDS011;2978;42.012;24.880;2023-03-07T03:56:03;35.23;;;22.20;;
5904;SDS011;2978;42.012;24.880;2023-03-07T03:58:34;41.70;;;25.80;;
5904;SDS011;2978;42.012;24.880;2023-03-07T04:01:00;41.83;;;25.67;;
5904;SDS011;2978;42.012;24.880;2023-03-07T04:03:30;34.80;;;22.23;;
5904;SDS011;2978;42.012;24.880;2023-03-07T04:06:02;34.10;;;21.90;;
5904;SDS011;2978;42.012;24.880;2023-03-07T04:08:30;35.50;;;22.70;;
5904;SDS011;2978;42.012;24.880;2023-03-07T04:10:56;41.30;;;22.27;;
5904;SDS011;2978;42.012;24.880;2023-03-07T04:13:22;36.93;;;22.50;;
5904;SDS011;2978;42.012;24.880;2023-03-07T04:15:48;36.57;;;21.53;;
5904;SDS011;2978;42.012;24.880;2023-03-07T04:18:13;29.00;;;20.47;;
5904;SDS011;2978;42.012;24.880;2023-03-07T04:20:43;33.90;;;21.90;;
5904;SDS011;2978;42.012;24.880;2023-03-07T04:23:09;35.87;;;22.60;;
5904;SDS011;2978;42.012;24.880;2023-03-07T04:25:35;28.10;;;20.33;;
5904;SDS011;2978;42.012;24.880;2023-03-07T04:28:01;31.17;;;20.07;;
5904;SDS011;2978;42.012;24.880;2023-03-07T04:30:26;31.47;;;22.10;;
5904;SDS011;2978;42.012;24.880;2023-03-07T04:32:52;36.40;;;22.33;;
5904;SDS011;2978;42.012;24.880;2023-03-07T04:35:17;36.50;;;22.50;;
5904;SDS011;2978;42.012;24.880;2023-03-07T04:37:43;37.43;;;22.57;;
5904;SDS011;2978;42.012;24.880;2023-03-07T04:40:08;31.03;;;21.17;;
5904;SDS011;2978;42.012;24.880;2023-03-07T04:42:34;28.40;;;20.40;;
5904;SDS011;2978;42.012;24.880;2023-03-07T04:45:00;32.67;;;19.93;;
5904;SDS011;2978;42.012;24.880;2023-03-07T04:47:25;28.97;;;19.67;;
5904;SDS011;2978;42.012;24.880;2023-03-07T04:49:50;37.70;;;21.40;;
5904;SDS011;2978;42.012;24.880;2023-03-07T04:52:16;63.97;;;25.23;;
5904;SDS011;2978;42.012;24.880;2023-03-07T04:54:42;38.47;;;22.00;;
5904;SDS011;2978;42.012;24.880;2023-03-07T04:57:07;43.23;;;24.50;;
5904;SDS011;2978;42.012;24.880;2023-03-07T04:59:33;42.90;;;22.97;;
5904;SDS011;2978;42.012;24.880;2023-03-07T05:02:03;36.77;;;21.00;;
5904;SDS011;2978;42.012;24.880;2023-03-07T05:04:32;49.70;;;22.83;;
5904;SDS011;2978;42.012;24.880;2023-03-07T05:06:57;40.73;;;23.87;;
5904;SDS011;2978;42.012;24.880;2023-03-07T05:09:23;34.33;;;21.07;;
5904;SDS011;2978;42.012;24.880;2023-03-07T05:11:48;38.10;;;21.67;;
5904;SDS011;2978;42.012;24.880;2023-03-07T05:14:13;29.20;;;20.57;;
5904;SDS011;2978;42.012;24.880;2023-03-07T05:16:39;41.03;;;21.53;;
5904;SDS011;2978;42.012;24.880;2023-03-07T05:19:04;47.03;;;24.80;;
5904;SDS011;2978;42.012;24.880;2023-03-07T05:21:30;51.83;;;23.40;;
5904;SDS011;2978;42.012;24.880;2023-03-07T05:23:56;60.40;;;24.87;;
5904;SDS011;2978;42.012;24.880;2023-03-07T05:26:21;44.07;;;24.10;;
5904;SDS011;2978;42.012;24.880;2023-03-07T05:28:46;53.17;;;24.87;;
5904;SDS011;2978;42.012;24.880;2023-03-07T05:31:13;40.03;;;23.10;;
5904;SDS011;2978;42.012;24.880;2023-03-07T05:33:39;42.83;;;24.13;;
5904;SDS011;2978;42.012;24.880;2023-03-07T05:36:06;37.10;;;21.87;;
5904;SDS011;2978;42.012;24.880;2023-03-07T05:38:33;70.90;;;43.87;;
5904;SDS011;2978;42.012;24.880;2023-03-07T05:40:59;42.30;;;24.67;;
5904;SDS011;2978;42.012;24.880;2023-03-07T05:43:24;41.17;;;23.53;;
5904;SDS011;2978;42.012;24.880;2023-03-07T05:45:50;70.23;;;30.17;;
5904;SDS011;2978;42.012;24.880;2023-03-07T05:48:15;38.87;;;21.97;;
5904;SDS011;2978;42.012;24.880;2023-03-07T05:50:41;41.27;;;19.90;;
5904;SDS011;2978;42.012;24.880;2023-03-07T05:53:06;36.23;;;19.83;;
5904;SDS011;2978;42.012;24.880;2023-03-07T05:55:32;31.97;;;19.33;;
5904;SDS011;2978;42.012;24.880;2023-03-07T05:57:58;37.97;;;20.67;;
5904;SDS011;2978;42.012;24.880;2023-03-07T06:00:23;37.50;;;18.27;;
5904;SDS011;2978;42.012;24.880;2023-03-07T06:02:49;31.93;;;20.60;;
5904;SDS011;2978;42.012;24.880;2023-03-07T06:05:14;39.73;;;19.37;;
5904;SDS011;2978;42.012;24.880;2023-03-07T06:07:40;39.03;;;21.20;;
5904;SDS011;2978;42.012;24.880;2023-03-07T06:10:05;35.73;;;19.70;;
5904;SDS011;2978;42.012;24.880;2023-03-07T06:12:31;27.87;;;19.93;;
5904;SDS011;2978;42.012;24.880;2023-03-07T06:14:57;40.70;;;20.10;;
5904;SDS011;2978;42.012;24.880;2023-03-07T06:17:22;38.67;;;18.87;;
5904;SDS011;2978;42.012;24.880;2023-03-07T06:19:48;42.70;;;20.50;;
5904;SDS011;2978;42.012;24.880;2023-03-07T06:22:13;33.17;;;19.53;;
5904;SDS011;2978;42.012;24.880;2023-03-07T06:24:38;30.70;;;19.40;;
5904;SDS011;2978;42.012;24.880;2023-03-07T06:27:04;39.80;;;20.20;;
5904;SDS011;2978;42.012;24.880;2023-03-07T06:29:29;37.60;;;21.97;;
5904;SDS011;2978;42.012;24.880;2023-03-07T06:31:55;33.30;;;21.17;;
5904;SDS011;2978;42.012;24.880;2023-03-07T06:34:20;28.73;;;19.60;;
5904;SDS011;2978;42.012;24.880;2023-03-07T06:36:45;38.07;;;20.90;;
5904;SDS011;2978;42.012;24.880;2023-03-07T06:39:12;38.63;;;20.73;;
5904;SDS011;2978;42.012;24.880;2023-03-07T06:41:40;38.53;;;21.30;;
5904;SDS011;2978;42.012;24.880;2023-03-07T06:44:12;39.40;;;24.47;;
5904;SDS011;2978;42.012;24.880;2023-03-07T06:46:38;33.77;;;21.03;;
5904;SDS011;2978;42.012;24.880;2023-03-07T06:49:03;43.73;;;20.43;;
5904;SDS011;2978;42.012;24.880;2023-03-07T06:51:29;30.70;;;19.30;;
5904;SDS011;2978;42.012;24.880;2023-03-07T06:53:54;34.73;;;20.60;;
5904;SDS011;2978;42.012;24.880;2023-03-07T06:56:19;33.73;;;22.97;;
5904;SDS011;2978;42.012;24.880;2023-03-07T06:58:45;38.93;;;22.33;;
5904;SDS011;2978;42.012;24.880;2023-03-07T07:01:17;37.93;;;22.17;;
5904;SDS011;2978;42.012;24.880;2023-03-07T07:03:44;34.30;;;21.30;;
5904;SDS011;2978;42.012;24.880;2023-03-07T07:06:09;37.70;;;21.13;;
5904;SDS011;2978;42.012;24.880;2023-03-07T07:08:35;32.47;;;19.57;;
5904;SDS011;2978;42.012;24.880;2023-03-07T07:11:00;25.67;;;17.57;;
5904;SDS011;2978;42.012;24.880;2023-03-07T07:13:26;25.80;;;16.63;;
5904;SDS011;2978;42.012;24.880;2023-03-07T07:15:51;24.77;;;15.30;;
5904;SDS011;2978;42.012;24.880;2023-03-07T07:18:17;26.93;;;14.90;;
5904;SDS011;2978;42.012;24.880;2023-03-07T07:20:43;25.40;;;15.63;;
5904;SDS011;2978;42.012;24.880;2023-03-07T07:23:08;29.80;;;17.30;;
5904;SDS011;2978;42.012;24.880;2023-03-07T07:25:33;27.87;;;17.20;;
5904;SDS011;2978;42.012;24.880;2023-03-07T07:27:59;25.77;;;15.27;;
5904;SDS011;2978;42.012;24.880;2023-03-07T07:30:25;26.77;;;15.53;;
5904;SDS011;2978;42.012;24.880;2023-03-07T07:32:50;19.47;;;14.93;;
5904;SDS011;2978;42.012;24.880;2023-03-07T07:35:16;23.53;;;15.70;;
5904;SDS011;2978;42.012;24.880;2023-03-07T07:37:41;20.80;;;14.83;;
5904;SDS011;2978;42.012;24.880;2023-03-07T07:40:07;25.33;;;15.73;;
5904;SDS011;2978;42.012;24.880;2023-03-07T07:42:35;21.90;;;16.07;;
5904;SDS011;2978;42.012;24.880;2023-03-07T07:45:01;22.80;;;15.63;;
5904;SDS011;2978;42.012;24.880;2023-03-07T07:47:27;26.77;;;16.53;;
5904;SDS011;2978;42.012;24.880;2023-03-07T07:49:52;19.60;;;15.00;;
5904;SDS011;2978;42.012;24.880;2023-03-07T07:52:18;20.63;;;14.00;;
5904;SDS011;2978;42.012;24.880;2023-03-07T07:54:43;19.70;;;15.27;;
5904;SDS011;2978;42.012;24.880;2023-03-07T07:57:09;23.23;;;14.10;;
5904;SDS011;2978;42.012;24.880;2023-03-07T07:59:34;20.40;;;14.33;;
5904;SDS011;2978;42.012;24.880;2023-03-07T08:02:00;21.80;;;14.87;;
5904;SDS011;2978;42.012;24.880;2023-03-07T08:04:25;19.67;;;12.67;;
5904;SDS011;2978;42.012;24.880;2023-03-07T08:06:51;16.23;;;13.33;;
5904;SDS011;2978;42.012;24.880;2023-03-07T08:09:17;17.60;;;13.83;;
5904;SDS011;2978;42.012;24.880;2023-03-07T08:11:42;25.97;;;14.63;;
5904;SDS011;2978;42.012;24.880;2023-03-07T08:14:08;24.47;;;14.93;;
5904;SDS011;2978;42.012;24.880;2023-03-07T08:16:34;19.40;;;13.50;;
5904;SDS011;2978;42.012;24.880;2023-03-07T08:18:59;18.80;;;14.80;;
5904;SDS011;2978;42.012;24.880;2023-03-07T08:21:25;21.20;;;15.57;;
5904;SDS011;2978;42.012;24.880;2023-03-07T08:23:54;20.00;;;14.37;;
5904;SDS011;2978;42.012;24.880;2023-03-07T08:26:20;17.80;;;14.43;;
5904;SDS011;2978;42.012;24.880;2023-03-07T08:28:46;18.47;;;13.07;;
5904;SDS011;2978;42.012;24.880;2023-03-07T08:31:16;20.20;;;14.57;;
5904;SDS011;2978;42.012;24.880;2023-03-07T08:33:45;28.20;;;16.10;;
5904;SDS011;2978;42.012;24.880;2023-03-07T08:36:11;23.30;;;14.77;;
5904;SDS011;2978;42.012;24.880;2023-03-07T08:38:38;24.10;;;15.00;;
5904;SDS011;2978;42.012;24.880;2023-03-07T08:41:04;22.10;;;15.10;;
5904;SDS011;2978;42.012;24.880;2023-03-07T08:43:32;20.33;;;15.30;;
5904;SDS011;2978;42.012;24.880;2023-03-07T08:46:00;24.80;;;16.00;;
5904;SDS011;2978;42.012;24.880;2023-03-07T08:48:26;27.53;;;15.40;;
5904;SDS011;2978;42.012;24.880;2023-03-07T08:50:52;24.93;;;14.53;;
5904;SDS011;2978;42.012;24.880;2023-03-07T08:53:18;23.23;;;14.63;;
5904;SDS011;2978;42.012;24.880;2023-03-07T08:55:44;22.97;;;13.60;;
5904;SDS011;2978;42.012;24.880;2023-03-07T08:58:09;18.63;;;14.00;;
5904;SDS011;2978;42.012;24.880;2023-03-07T09:00:36;21.30;;;14.63;;
5904;SDS011;2978;42.012;24.880;2023-03-07T09:03:02;22.07;;;14.60;;
5904;SDS011;2978;42.012;24.880;2023-03-07T09:05:28;23.80;;;14.30;;
5904;SDS011;2978;42.012;24.880;2023-03-07T09:07:54;21.00;;;13.23;;
5904;SDS011;2978;42.012;24.880;2023-03-07T09:10:20;23.47;;;13.97;;
5904;SDS011;2978;42.012;24.880;2023-03-07T09:12:46;22.90;;;16.20;;
5904;SDS011;2978;42.012;24.880;2023-03-07T09:15:12;23.23;;;14.00;;
5904;SDS011;2978;42.012;24.880;2023-03-07T09:17:38;22.53;;;14.43;;
5904;SDS011;2978;42.012;24.880;2023-03-07T09:20:04;21.17;;;14.20;;
5904;SDS011;2978;42.012;24.880;2023-03-07T09:22:31;29.17;;;16.00;;
5904;SDS011;2978;42.012;24.880;2023-03-07T09:24:56;23.33;;;13.10;;
5904;SDS011;2978;42.012;24.880;2023-03-07T09:27:22;15.00;;;11.00;;
5904;SDS011;2978;42.012;24.880;2023-03-07T09:29:47;25.30;;;11.43;;
5904;SDS011;2978;42.012;24.880;2023-03-07T09:32:13;20.33;;;15.17;;
5904;SDS011;2978;42.012;24.880;2023-03-07T09:34:38;20.83;;;14.83;;
5904;SDS011;2978;42.012;24.880;2023-03-07T09:37:03;26.57;;;14.07;;
5904;SDS011;2978;42.012;24.880;2023-03-07T09:39:29;23.23;;;13.00;;
5904;SDS011;2978;42.012;24.880;2023-03-07T09:44:51;19.93;;;12.07;;
5904;SDS011;2978;42.012;24.880;2023-03-07T09:49:53;23.47;;;15.77;;
5904;SDS011;2978;42.012;24.880;2023-03-07T09:52:20;20.33;;;14.17;;
5904;SDS011;2978;42.012;24.880;2023-03-07T09:54:49;18.73;;;14.27;;
5904;SDS011;2978;42.012;24.880;2023-03-07T09:57:28;19.77;;;12.97;;
5904;SDS011;2978;42.012;24.880;2023-03-07T09:59:59;20.87;;;14.03;;
5904;SDS011;2978;42.012;24.880;2023-03-07T10:05:55;21.43;;;14.00;;
5904;SDS011;2978;42.012;24.880;2023-03-07T10:08:30;22.77;;;13.27;;
5904;SDS011;2978;42.012;24.880;2023-03-07T10:19:43;27.20;;;16.13;;
5904;SDS011;2978;42.012;24.880;2023-03-07T10:28:23;17.33;;;11.90;;
5904;SDS011;2978;42.012;24.880;2023-03-07T10:30:53;15.37;;;11.27;;
5904;SDS011;2978;42.012;24.880;2023-03-07T10:33:23;16.67;;;10.10;;
5904;SDS011;2978;42.012;24.880;2023-03-07T10:35:53;12.87;;;9.50;;
5904;SDS011;2978;42.012;24.880;2023-03-07T10:43:42;12.77;;;10.80;;
5904;SDS011;2978;42.012;24.880;2023-03-07T10:46:10;18.17;;;10.80;;
5904;SDS011;2978;42.012;24.880;2023-03-07T10:48:51;14.93;;;11.40;;
5904;SDS011;2978;42.012;24.880;2023-03-07T10:54:00;19.10;;;13.60;;
5904;SDS011;2978;42.012;24.880;2023-03-07T10:56:27;17.90;;;13.27;;
5904;SDS011;2978;42.012;24.880;2023-03-07T11:01:30;19.27;;;11.90;;
5904;SDS011;2978;42.012;24.880;2023-03-07T11:03:58;14.70;;;10.70;;
5904;SDS011;2978;42.012;24.880;2023-03-07T11:14:30;19.60;;;8.27;;
5904;SDS011;2978;42.012;24.880;2023-03-07T11:17:22;10.37;;;7.33;;
5904;SDS011;2978;42.012;24.880;2023-03-07T11:20:03;9.83;;;6.60;;
5904;SDS011;2978;42.012;24.880;2023-03-07T11:22:49;8.37;;;6.53;;
5904;SDS011;2978;42.012;24.880;2023-03-07T11:25:34;8.23;;;6.43;;
5904;SDS011;2978;42.012;24.880;2023-03-07T11:28:00;10.93;;;7.97;;
5904;SDS011;2978;42.012;24.880;2023-03-07T11:30:34;9.70;;;7.23;;
5904;SDS011;2978;42.012;24.880;2023-03-07T11:33:18;12.20;;;7.20;;
5904;SDS011;2978;42.012;24.880;2023-03-07T11:35:56;9.83;;;7.30;;
5904;SDS011;2978;42.012;24.880;2023-03-07T11:54:10;10.53;;;8.03;;
5904;SDS011;2978;42.012;24.880;2023-03-07T11:56:55;11.47;;;6.90;;
5904;SDS011;2978;42.012;24.880;2023-03-07T12:22:27;12.80;;;8.50;;
5904;SDS011;2978;42.012;24.880;2023-03-07T12:32:58;17.83;;;9.73;;
5904;SDS011;2978;42.012;24.880;2023-03-07T12:35:40;13.10;;;8.50;;
5904;SDS011;2978;42.012;24.880;2023-03-07T12:38:16;10.63;;;7.67;;
5904;SDS011;2978;42.012;24.880;2023-03-07T12:40:47;11.50;;;7.90;;
5904;SDS011;2978;42.012;24.880;2023-03-07T12:43:20;11.00;;;7.57;;
5904;SDS011;2978;42.012;24.880;2023-03-07T12:51:37;11.90;;;7.13;;
5904;SDS011;2978;42.012;24.880;2023-03-07T12:54:10;10.17;;;7.50;;
5904;SDS011;2978;42.012;24.880;2023-03-07T12:59:32;12.83;;;8.10;;
5904;SDS011;2978;42.012;24.880;2023-03-07T13:02:10;16.50;;;7.83;;
5904;SDS011;2978;42.012;24.880;2023-03-07T13:04:40;9.63;;;7.50;;
5904;SDS011;2978;42.012;24.880;2023-03-07T13:07:08;12.67;;;9.00;;
5904;SDS011;2978;42.012;24.880;2023-03-07T13:09:38;10.53;;;7.53;;
5904;SDS011;2978;42.012;24.880;2023-03-07T13:14:52;11.40;;;7.97;;
5904;SDS011;2978;42.012;24.880;2023-03-07T13:19:58;14.90;;;6.80;;
5904;SDS011;2978;42.012;24.880;2023-03-07T13:24:55;12.03;;;8.17;;
5904;SDS011;2978;42.012;24.880;2023-03-07T13:27:25;12.40;;;7.93;;
5904;SDS011;2978;42.012;24.880;2023-03-07T13:40:46;12.53;;;6.37;;
5904;SDS011;2978;42.012;24.880;2023-03-07T13:45:47;10.87;;;6.23;;
5904;SDS011;2978;42.012;24.880;2023-03-07T13:58:46;13.40;;;7.47;;
5904;SDS011;2978;42.012;24.880;2023-03-07T14:01:35;9.83;;;6.43;;
5904;SDS011;2978;42.012;24.880;2023-03-07T14:04:31;11.03;;;5.80;;
5904;SDS011;2978;42.012;24.880;2023-03-07T14:07:10;8.60;;;5.73;;
5904;SDS011;2978;42.012;24.880;2023-03-07T14:09:56;8.13;;;5.40;;
5904;SDS011;2978;42.012;24.880;2023-03-07T14:20:52;7.60;;;5.13;;
5904;SDS011;2978;42.012;24.880;2023-03-07T14:29:01;11.27;;;6.03;;
5904;SDS011;2978;42.012;24.880;2023-03-07T14:31:35;8.93;;;6.00;;
5904;SDS011;2978;42.012;24.880;2023-03-07T14:37:19;15.40;;;7.30;;
5904;SDS011;2978;42.012;24.880;2023-03-07T14:39:58;12.43;;;6.30;;
5904;SDS011;2978;42.012;24.880;2023-03-07T14:50:27;13.93;;;6.40;;
5904;SDS011;2978;42.012;24.880;2023-03-07T14:52:58;10.27;;;5.53;;
5904;SDS011;2978;42.012;24.880;2023-03-07T14:55:30;14.57;;;6.67;;
5904;SDS011;2978;42.012;24.880;2023-03-07T14:58:00;9.77;;;6.63;;
5904;SDS011;2978;42.012;24.880;2023-03-07T15:00:27;13.33;;;6.63;;
5904;SDS011;2978;42.012;24.880;2023-03-07T15:03:14;9.30;;;6.70;;
5904;SDS011;2978;42.012;24.880;2023-03-07T15:05:49;10.77;;;5.50;;
5904;SDS011;2978;42.012;24.880;2023-03-07T15:08:17;12.87;;;7.10;;
5904;SDS011;2978;42.012;24.880;2023-03-07T15:10:46;14.23;;;7.23;;
5904;SDS011;2978;42.012;24.880;2023-03-07T15:13:24;18.43;;;9.23;;
5904;SDS011;2978;42.012;24.880;2023-03-07T15:16:06;21.53;;;10.70;;
5904;SDS011;2978;42.012;24.880;2023-03-07T15:21:49;14.87;;;8.40;;
5904;SDS011;2978;42.012;24.880;2023-03-07T15:24:28;11.23;;;6.77;;
5904;SDS011;2978;42.012;24.880;2023-03-07T15:26:59;19.37;;;7.40;;
5904;SDS011;2978;42.012;24.880;2023-03-07T15:29:26;12.30;;;7.63;;
5904;SDS011;2978;42.012;24.880;2023-03-07T15:31:57;15.23;;;8.20;;
5904;SDS011;2978;42.012;24.880;2023-03-07T15:34:29;15.13;;;7.80;;
5904;SDS011;2978;42.012;24.880;2023-03-07T15:37:18;18.60;;;8.93;;
5904;SDS011;2978;42.012;24.880;2023-03-07T15:40:01;21.20;;;7.90;;
5904;SDS011;2978;42.012;24.880;2023-03-07T15:42:27;21.73;;;7.60;;
5904;SDS011;2978;42.012;24.880;2023-03-07T15:44:54;16.77;;;9.07;;
5904;SDS011;2978;42.012;24.880;2023-03-07T15:47:22;13.60;;;8.20;;
5904;SDS011;2978;42.012;24.880;2023-03-07T15:49:49;21.50;;;7.90;;
5904;SDS011;2978;42.012;24.880;2023-03-07T15:52:30;19.47;;;7.67;;
5904;SDS011;2978;42.012;24.880;2023-03-07T15:55:00;13.27;;;7.90;;
5904;SDS011;2978;42.012;24.880;2023-03-07T15:57:50;17.17;;;8.70;;
5904;SDS011;2978;42.012;24.880;2023-03-07T16:03:12;22.80;;;9.30;;
5904;SDS011;2978;42.012;24.880;2023-03-07T16:05:40;15.30;;;10.10;;
5904;SDS011;2978;42.012;24.880;2023-03-07T16:08:08;25.90;;;10.67;;
5904;SDS011;2978;42.012;24.880;2023-03-07T16:10:37;24.00;;;11.60;;
5904;SDS011;2978;42.012;24.880;2023-03-07T16:13:09;23.23;;;10.67;;
5904;SDS011;2978;42.012;24.880;2023-03-07T16:15:39;16.63;;;10.37;;
5904;SDS011;2978;42.012;24.880;2023-03-07T16:18:04;28.77;;;9.40;;
5904;SDS011;2978;42.012;24.880;2023-03-07T16:20:30;52.10;;;27.60;;
5904;SDS011;2978;42.012;24.880;2023-03-07T16:22:56;49.03;;;22.20;;
5904;SDS011;2978;42.012;24.880;2023-03-07T16:25:22;46.70;;;24.70;;
5904;SDS011;2978;42.012;24.880;2023-03-07T16:27:51;49.30;;;23.87;;
5904;SDS011;2978;42.012;24.880;2023-03-07T16:30:21;40.90;;;18.70;;
5904;SDS011;2978;42.012;24.880;2023-03-07T16:32:49;30.20;;;13.33;;
5904;SDS011;2978;42.012;24.880;2023-03-07T16:35:16;30.63;;;13.87;;
5904;SDS011;2978;42.012;24.880;2023-03-07T16:37:44;28.00;;;13.17;;
5904;SDS011;2978;42.012;24.880;2023-03-07T16:40:10;30.43;;;13.40;;
5904;SDS011;2978;42.012;24.880;2023-03-07T16:42:37;22.50;;;10.83;;
5904;SDS011;2978;42.012;24.880;2023-03-07T16:45:06;16.67;;;9.97;;
5904;SDS011;2978;42.012;24.880;2023-03-07T16:47:39;22.50;;;11.10;;
5904;SDS011;2978;42.012;24.880;2023-03-07T16:50:08;23.17;;;11.23;;
5904;SDS011;2978;42.012;24.880;2023-03-07T16:52:37;23.30;;;10.73;;
5904;SDS011;2978;42.012;24.880;2023-03-07T16:55:03;24.27;;;11.77;;
5904;SDS011;2978;42.012;24.880;2023-03-07T16:57:28;31.30;;;13.17;;
5904;SDS011;2978;42.012;24.880;2023-03-07T16:59:54;23.20;;;13.13;;
5904;SDS011;2978;42.012;24.880;2023-03-07T17:02:19;29.60;;;11.40;;
5904;SDS011;2978;42.012;24.880;2023-03-07T17:04:46;25.90;;;11.07;;
5904;SDS011;2978;42.012;24.880;2023-03-07T17:07:16;20.17;;;10.40;;
5904;SDS011;2978;42.012;24.880;2023-03-07T17:09:43;16.23;;;8.20;;
5904;SDS011;2978;42.012;24.880;2023-03-07T17:12:09;22.93;;;8.30;;
5904;SDS011;2978;42.012;24.880;2023-03-07T17:14:35;24.90;;;10.20;;
5904;SDS011;2978;42.012;24.880;2023-03-07T17:17:01;16.83;;;8.77;;
5904;SDS011;2978;42.012;24.880;2023-03-07T17:19:29;28.90;;;9.33;;
5904;SDS011;2978;42.012;24.880;2023-03-07T17:21:57;14.83;;;8.10;;
5904;SDS011;2978;42.012;24.880;2023-03-07T17:24:24;12.20;;;8.00;;
5904;SDS011;2978;42.012;24.880;2023-03-07T17:26:50;16.43;;;7.33;;
5904;SDS011;2978;42.012;24.880;2023-03-07T17:32:07;14.17;;;8.83;;
5904;SDS011;2978;42.012;24.880;2023-03-07T17:34:34;11.57;;;7.30;;